createdAt,value
2018-03-02T00:01:02.846Z,54.80
2018-03-02T00:03:30.275Z,69.90
2018-03-02T00:05:57.658Z,61.80
2018-03-02T00:08:25.064Z,57.80
2018-03-02T00:10:52.412Z,57.85
2018-03-02T00:13:19.810Z,63.63
2018-03-02T00:15:47.183Z,69.78
2018-03-02T00:18:14.610Z,63.17
2018-03-02T00:20:41.970Z,60.45
2018-03-02T00:23:09.324Z,61.08
2018-03-02T00:25:36.742Z,59.00
2018-03-02T00:28:04.101Z,58.05
2018-03-02T00:30:31.495Z,58.47
2018-03-02T00:32:58.849Z,61.83
2018-03-02T00:35:26.223Z,59.83
2018-03-02T00:37:53.679Z,60.45
2018-03-02T00:40:21.072Z,59.00
2018-03-02T00:42:48.407Z,64.20
2018-03-02T00:45:15.846Z,59.70
2018-03-02T00:47:43.221Z,59.33
2018-03-02T00:50:10.567Z,58.38
2018-03-02T00:52:37.948Z,59.78
2018-03-02T00:55:05.302Z,57.90
2018-03-02T00:57:32.706Z,59.35
2018-03-02T01:00:00.178Z,62.22
2018-03-02T01:02:27.559Z,57.10
2018-03-02T01:04:54.947Z,58.22
2018-03-02T01:07:22.363Z,62.70
2018-03-02T01:09:49.723Z,57.00
2018-03-02T01:12:17.084Z,62.00
2018-03-02T01:14:44.497Z,58.55
2018-03-02T01:17:11.868Z,60.20
2018-03-02T01:19:39.246Z,56.30
2018-03-02T01:22:06.709Z,56.00
2018-03-02T01:24:34.097Z,62.90
2018-03-02T01:27:01.481Z,61.60
2018-03-02T01:29:28.883Z,54.95
2018-03-02T01:31:56.235Z,56.20
2018-03-02T01:34:23.667Z,61.57
2018-03-02T01:36:51.051Z,58.95
2018-03-02T01:39:18.404Z,58.58
2018-03-02T01:41:45.788Z,64.10
2018-03-02T01:44:13.139Z,58.17
2018-03-02T01:46:40.537Z,64.35
2018-03-02T01:49:07.878Z,57.30
2018-03-02T01:51:41.370Z,57.10
2018-03-02T01:54:08.743Z,54.22
2018-03-02T01:56:36.115Z,51.90
2018-03-02T01:59:03.484Z,59.47
2018-03-02T02:01:30.852Z,57.40
2018-03-02T02:03:58.254Z,53.13
2018-03-02T02:06:25.639Z,58.58
2018-03-02T02:08:53.039Z,56.85
2018-03-02T02:11:20.404Z,54.25
2018-03-02T02:13:47.786Z,74.90
2018-03-02T02:16:15.163Z,61.85
2018-03-02T02:18:42.548Z,62.58
2018-03-02T02:21:09.912Z,55.17
2018-03-02T02:23:37.259Z,59.47
2018-03-02T02:26:04.666Z,55.47
2018-03-02T02:28:32.015Z,58.92
2018-03-02T02:30:59.393Z,57.10
2018-03-02T02:33:26.831Z,61.33
2018-03-02T02:35:54.232Z,59.17
2018-03-02T02:38:21.582Z,58.30
2018-03-02T02:40:48.994Z,52.92
2018-03-02T02:43:16.370Z,58.80
2018-03-02T02:45:43.715Z,56.53
2018-03-02T02:48:11.103Z,55.55
2018-03-02T02:50:38.617Z,58.67
2018-03-02T02:53:06.075Z,58.65
2018-03-02T02:55:33.534Z,51.70
2018-03-02T02:58:00.910Z,55.20
2018-03-02T03:00:28.345Z,51.35
2018-03-02T03:02:55.741Z,56.08
2018-03-02T03:05:23.121Z,54.05
2018-03-02T03:07:50.519Z,48.50
2018-03-02T03:10:17.923Z,55.75
2018-03-02T03:12:45.273Z,53.42
2018-03-02T03:15:12.651Z,56.17
2018-03-02T03:17:40.031Z,55.60
2018-03-02T03:20:07.488Z,59.75
2018-03-02T03:22:34.886Z,55.75
2018-03-02T03:25:02.253Z,59.80
2018-03-02T03:27:29.658Z,59.05
2018-03-02T03:29:57.112Z,56.13
2018-03-02T03:32:24.513Z,59.72
2018-03-02T03:34:51.863Z,62.70
2018-03-02T03:37:19.384Z,56.60
2018-03-02T03:39:46.741Z,60.17
2018-03-02T03:42:14.147Z,57.75
2018-03-02T03:44:41.549Z,56.72
2018-03-02T03:47:09.070Z,50.45
2018-03-02T03:49:36.442Z,54.97
2018-03-02T03:52:03.918Z,57.22
2018-03-02T03:54:31.292Z,55.00
2018-03-02T03:56:58.664Z,57.85
2018-03-02T03:59:26.046Z,53.38
2018-03-02T04:01:53.396Z,50.80
2018-03-02T04:04:20.767Z,65.95
2018-03-02T04:06:48.178Z,58.65
2018-03-02T04:09:15.554Z,50.30
2018-03-02T04:11:42.959Z,52.30
2018-03-02T04:14:10.419Z,59.80
2018-03-02T04:16:37.796Z,68.45
2018-03-02T04:19:05.199Z,53.05
2018-03-02T04:21:32.585Z,58.10
2018-03-02T04:23:59.983Z,62.38
2018-03-02T04:26:27.405Z,53.47
2018-03-02T04:28:54.854Z,54.85
2018-03-02T04:31:22.270Z,66.28
2018-03-02T04:33:49.648Z,51.88
2018-03-02T04:36:17.106Z,54.20
2018-03-02T04:38:44.482Z,61.70
2018-03-02T04:41:11.868Z,58.55
2018-03-02T04:43:39.289Z,54.40
2018-03-02T04:46:06.668Z,59.10
2018-03-02T04:48:34.106Z,54.08
2018-03-02T04:51:01.486Z,62.53
2018-03-02T04:53:28.870Z,53.58
2018-03-02T04:55:56.224Z,54.55
2018-03-02T04:58:23.628Z,57.70
2018-03-02T05:00:50.977Z,53.35
2018-03-02T05:03:18.436Z,59.53
2018-03-02T05:05:45.787Z,55.55
2018-03-02T05:08:13.166Z,57.20
2018-03-02T05:10:40.523Z,55.38
2018-03-02T05:13:07.936Z,56.78
2018-03-02T05:15:35.291Z,54.20
2018-03-02T05:18:02.696Z,58.58
2018-03-02T05:20:30.126Z,62.05
2018-03-02T05:22:57.502Z,52.97
2018-03-02T05:25:24.943Z,53.72
2018-03-02T05:27:52.328Z,55.12
2018-03-02T05:30:19.729Z,49.35
2018-03-02T05:32:47.085Z,53.90
2018-03-02T05:35:14.462Z,57.75
2018-03-02T05:37:41.916Z,57.47
2018-03-02T05:40:09.294Z,61.10
2018-03-02T05:42:36.730Z,53.35
2018-03-02T05:45:04.185Z,55.00
2018-03-02T05:47:31.549Z,59.15
2018-03-02T05:49:58.932Z,62.10
2018-03-02T05:52:26.351Z,68.68
2018-03-02T05:54:53.729Z,68.32
2018-03-02T05:57:21.145Z,61.60
2018-03-02T05:59:48.489Z,60.00
2018-03-02T06:02:15.875Z,62.00
2018-03-02T06:04:43.243Z,58.30
2018-03-02T06:07:10.616Z,63.20
2018-03-02T06:09:37.959Z,57.20
2018-03-02T06:12:05.348Z,62.90
2018-03-02T06:14:32.710Z,65.68
2018-03-02T06:17:00.138Z,61.07
2018-03-02T06:19:27.487Z,56.63
2018-03-02T06:21:54.872Z,58.63
2018-03-02T06:24:22.253Z,60.17
2018-03-02T06:26:49.689Z,61.15
2018-03-02T06:29:17.087Z,54.72
2018-03-02T06:31:44.448Z,52.10
2018-03-02T06:34:11.863Z,62.97
2018-03-02T06:36:39.229Z,61.80
2018-03-02T06:39:06.614Z,57.58
2018-03-02T06:41:34.011Z,63.67
2018-03-02T06:44:01.370Z,62.42
2018-03-02T06:46:28.873Z,53.28
2018-03-02T06:48:56.225Z,57.83
2018-03-02T06:51:23.618Z,60.15
2018-03-02T06:53:50.996Z,56.08
2018-03-02T06:56:18.352Z,66.53
2018-03-02T06:58:45.853Z,67.72
2018-03-02T07:01:13.197Z,66.57
2018-03-02T07:03:40.975Z,63.10
2018-03-02T07:06:09.781Z,53.08
2018-03-02T07:08:38.663Z,55.58
2018-03-02T07:11:06.929Z,62.53
2018-03-02T07:13:34.586Z,56.83
2018-03-02T07:16:01.934Z,69.43
2018-03-02T07:18:29.332Z,64.20
2018-03-02T07:20:56.754Z,81.63
2018-03-02T07:23:24.118Z,57.33
2018-03-02T07:25:51.498Z,65.97
2018-03-02T07:28:18.862Z,58.87
2018-03-02T07:30:46.256Z,64.32
2018-03-02T07:33:13.942Z,58.13
2018-03-02T07:35:41.403Z,55.65
2018-03-02T07:38:08.745Z,59.67
2018-03-02T07:40:36.186Z,61.88
2018-03-02T07:43:03.540Z,63.13
2018-03-02T07:45:31.899Z,57.83
2018-03-02T07:48:00.968Z,69.07
2018-03-02T07:50:29.931Z,56.95
2018-03-02T07:52:58.045Z,65.80
2018-03-02T07:55:26.731Z,65.30
2018-03-02T07:57:55.499Z,55.33
2018-03-02T08:00:24.401Z,56.85
2018-03-02T08:02:52.052Z,59.42
2018-03-02T08:05:19.460Z,57.58
2018-03-02T08:07:46.835Z,59.50
2018-03-02T08:10:14.192Z,57.72
2018-03-02T08:12:41.587Z,70.03
2018-03-02T08:15:09.001Z,63.78
2018-03-02T08:17:36.373Z,63.28
2018-03-02T08:20:03.763Z,56.45
2018-03-02T08:22:31.120Z,54.42
2018-03-02T08:24:58.491Z,56.45
2018-03-02T08:27:25.876Z,67.47
2018-03-02T08:29:53.253Z,62.95
2018-03-02T08:32:20.613Z,59.42
2018-03-02T08:34:47.992Z,58.10
2018-03-02T08:37:15.370Z,69.15
2018-03-02T08:39:42.752Z,60.33
2018-03-02T08:42:10.112Z,61.90
2018-03-02T08:44:37.535Z,69.03
2018-03-02T08:47:04.904Z,59.40
2018-03-02T08:49:32.287Z,51.58
2018-03-02T08:51:59.680Z,66.65
2018-03-02T08:54:27.053Z,64.32
2018-03-02T08:56:54.438Z,67.35
2018-03-02T08:59:21.787Z,58.92
2018-03-02T09:01:49.213Z,60.65
2018-03-02T09:04:16.564Z,66.62
2018-03-02T09:06:43.963Z,63.20
2018-03-02T09:09:11.324Z,69.82
2018-03-02T09:11:38.719Z,76.18
2018-03-02T09:14:06.078Z,58.75
2018-03-02T09:16:33.468Z,75.00
2018-03-02T09:19:00.847Z,60.08
2018-03-02T09:21:28.234Z,63.97
2018-03-02T09:23:55.619Z,51.83
2018-03-02T09:26:23.001Z,66.62
2018-03-02T09:28:50.377Z,58.53
2018-03-02T09:31:17.748Z,61.53
2018-03-02T09:33:45.151Z,64.18
2018-03-02T09:36:12.506Z,69.12
2018-03-02T09:38:39.886Z,69.05
2018-03-02T09:41:07.256Z,65.78
2018-03-02T09:43:34.662Z,57.90
2018-03-02T09:46:02.040Z,65.40
2018-03-02T09:48:29.508Z,70.55
2018-03-02T09:50:56.857Z,59.50
2018-03-02T09:53:24.275Z,65.75
2018-03-02T09:55:51.777Z,62.03
2018-03-02T09:58:19.152Z,68.47
2018-03-02T10:00:46.524Z,65.07
2018-03-02T10:03:13.962Z,67.07
2018-03-02T10:05:41.383Z,63.35
2018-03-02T10:08:08.791Z,64.37
2018-03-02T10:10:36.205Z,61.05
2018-03-02T10:13:03.563Z,60.83
2018-03-02T10:15:30.956Z,68.15
2018-03-02T10:17:58.376Z,65.75
2018-03-02T10:20:25.735Z,74.00
2018-03-02T10:22:53.138Z,71.03
2018-03-02T10:25:20.544Z,61.67
2018-03-02T10:27:47.920Z,63.80
2018-03-02T10:30:15.322Z,62.72
2018-03-02T10:32:42.683Z,66.65
2018-03-02T10:35:10.073Z,71.70
2018-03-02T10:37:37.492Z,60.12
2018-03-02T10:40:04.851Z,62.80
2018-03-02T10:42:32.227Z,68.30
2018-03-02T10:44:59.689Z,69.85
2018-03-02T10:47:27.092Z,61.30
2018-03-02T10:49:54.475Z,57.33
2018-03-02T10:52:21.851Z,62.55
2018-03-02T10:54:49.227Z,65.12
2018-03-02T10:57:16.574Z,66.70
2018-03-02T10:59:43.958Z,24.27
2018-03-02T11:02:16.976Z,65.55
2018-03-02T11:04:47.304Z,66.37
2018-03-02T11:07:14.655Z,60.80
2018-03-02T11:09:42.032Z,75.07
2018-03-02T11:12:09.503Z,56.63
2018-03-02T11:14:36.888Z,61.73
2018-03-02T11:17:04.251Z,60.17
2018-03-02T11:19:31.623Z,70.30
2018-03-02T11:21:58.991Z,78.07
2018-03-02T11:24:26.378Z,58.92
2018-03-02T11:26:53.728Z,66.07
2018-03-02T11:29:21.095Z,64.10
2018-03-02T11:31:48.483Z,65.68
2018-03-02T11:34:15.844Z,64.18
2018-03-02T11:36:43.240Z,66.10
2018-03-02T11:39:10.606Z,64.83
2018-03-02T11:41:37.995Z,67.53
2018-03-02T11:44:05.358Z,67.20
2018-03-02T11:46:32.787Z,52.57
2018-03-02T11:49:00.140Z,72.22
2018-03-02T11:51:27.532Z,68.73
2018-03-02T11:53:54.873Z,69.85
2018-03-02T11:56:22.223Z,67.07
2018-03-02T11:58:49.607Z,64.30
2018-03-02T12:01:16.985Z,74.15
2018-03-02T12:03:44.352Z,69.07
2018-03-02T12:06:11.816Z,69.73
2018-03-02T12:08:39.222Z,69.30
2018-03-02T12:11:06.567Z,67.97
2018-03-02T12:13:33.995Z,72.40
2018-03-02T12:16:01.352Z,71.37
2018-03-02T12:18:28.706Z,65.50
2018-03-02T12:20:56.150Z,69.47
2018-03-02T12:23:23.490Z,69.43
2018-03-02T12:25:50.861Z,64.30
2018-03-02T12:28:18.262Z,72.10
2018-03-02T12:30:45.626Z,69.20
2018-03-02T12:33:12.978Z,71.87
2018-03-02T12:35:40.370Z,73.87
2018-03-02T12:38:07.727Z,78.00
2018-03-02T12:40:35.098Z,73.57
2018-03-02T12:43:02.436Z,77.50
2018-03-02T12:45:29.782Z,73.28
2018-03-02T12:47:57.155Z,134.27
2018-03-02T12:50:24.610Z,77.60
2018-03-02T12:52:51.980Z,70.37
2018-03-02T12:55:19.331Z,72.03
2018-03-02T12:57:47.496Z,70.20
2018-03-02T13:00:15.704Z,70.35
2018-03-02T13:02:43.988Z,69.12
2018-03-02T13:05:11.823Z,70.33
2018-03-02T13:07:39.972Z,77.30
2018-03-02T13:10:08.102Z,75.67
2018-03-02T13:12:36.210Z,73.10
2018-03-02T13:15:04.273Z,70.67
2018-03-02T13:17:32.815Z,71.90
2018-03-02T13:20:01.415Z,68.90
2018-03-02T13:22:34.946Z,75.20
2018-03-02T13:25:02.762Z,79.18
2018-03-02T13:27:36.829Z,77.55
2018-03-02T13:30:04.511Z,72.93
2018-03-02T13:32:32.649Z,71.43
2018-03-02T13:35:06.860Z,73.87
2018-03-02T13:37:34.912Z,76.23
2018-03-02T13:40:08.937Z,68.37
2018-03-02T13:42:37.240Z,74.30
2018-03-02T13:45:05.153Z,75.23
2018-03-02T13:47:38.826Z,73.90
2018-03-02T13:50:08.493Z,70.57
2018-03-02T13:52:36.644Z,73.67
2018-03-02T13:55:05.007Z,74.47
2018-03-02T13:57:38.829Z,70.03
2018-03-02T14:00:06.703Z,69.83
2018-03-02T14:02:40.330Z,68.87
2018-03-02T14:05:08.000Z,67.70
2018-03-02T14:07:36.675Z,69.30
2018-03-02T14:10:05.644Z,94.07
2018-03-02T14:12:34.821Z,125.17
2018-03-02T14:15:03.716Z,80.50
2018-03-02T14:17:32.353Z,73.47
2018-03-02T14:20:01.022Z,75.60
2018-03-02T14:22:29.588Z,77.07
2018-03-02T14:24:57.556Z,68.90
2018-03-02T14:27:25.355Z,77.37
2018-03-02T14:29:53.425Z,70.27
2018-03-02T14:32:21.597Z,67.77
2018-03-02T14:34:49.729Z,68.93
2018-03-02T14:37:17.737Z,70.17
2018-03-02T14:39:45.909Z,73.80
2018-03-02T14:42:14.807Z,65.90
2018-03-02T14:44:43.588Z,69.93
2018-03-02T14:47:11.943Z,72.90
2018-03-02T14:49:40.085Z,83.50
2018-03-02T14:52:08.063Z,72.50
2018-03-02T14:54:35.606Z,69.80
2018-03-02T14:57:02.955Z,68.53
2018-03-02T14:59:30.323Z,79.07
2018-03-02T15:01:57.676Z,73.30
2018-03-02T15:04:25.050Z,70.25
2018-03-02T15:06:52.386Z,69.73
2018-03-02T15:09:19.778Z,68.50
2018-03-02T15:11:47.115Z,79.47
2018-03-02T15:14:14.516Z,65.23
2018-03-02T15:16:41.880Z,76.20
2018-03-02T15:19:09.225Z,72.73
2018-03-02T15:21:36.595Z,69.20
2018-03-02T15:24:03.939Z,78.90
2018-03-02T15:26:31.414Z,81.77
2018-03-02T15:28:58.759Z,70.17
2018-03-02T15:31:26.149Z,79.33
2018-03-02T15:33:53.492Z,71.10
2018-03-02T15:36:20.903Z,76.93
2018-03-02T15:38:48.234Z,68.67
2018-03-02T15:41:15.580Z,74.93
2018-03-02T15:43:42.947Z,70.63
2018-03-02T15:46:10.286Z,73.33
2018-03-02T15:48:37.681Z,66.47
2018-03-02T15:51:05.023Z,70.00
2018-03-02T15:53:32.394Z,72.93
2018-03-02T15:55:59.760Z,76.63
2018-03-02T15:58:27.163Z,78.70
2018-03-02T16:00:54.529Z,76.17
2018-03-02T16:03:21.872Z,73.63
2018-03-02T16:05:49.273Z,73.60
2018-03-02T16:08:16.621Z,210.00
2018-03-02T16:10:43.997Z,123.87
2018-03-02T16:13:11.342Z,75.60
2018-03-02T16:15:38.748Z,81.40
2018-03-02T16:18:06.090Z,69.30
2018-03-02T16:20:33.460Z,76.60
2018-03-02T16:23:00.826Z,74.47
2018-03-02T16:25:28.308Z,77.37
2018-03-02T16:27:55.676Z,72.83
2018-03-02T16:30:23.019Z,77.87
2018-03-02T16:32:50.382Z,76.57
2018-03-02T16:35:17.730Z,81.47
2018-03-02T16:37:45.099Z,76.40
2018-03-02T16:40:12.488Z,70.00
2018-03-02T16:42:39.866Z,82.53
2018-03-02T16:45:07.201Z,80.60
2018-03-02T16:47:34.576Z,81.37
2018-03-02T16:50:01.918Z,79.43
2018-03-02T16:52:29.295Z,80.40
2018-03-02T16:54:56.686Z,71.47
2018-03-02T16:57:24.026Z,76.00
2018-03-02T16:59:51.410Z,82.37
2018-03-02T17:02:18.760Z,83.23
2018-03-02T17:04:46.222Z,90.38
2018-03-02T17:07:13.568Z,89.40
2018-03-02T17:09:40.946Z,93.07
2018-03-02T17:12:08.307Z,89.05
2018-03-02T17:14:35.708Z,83.45
2018-03-02T17:17:03.059Z,84.60
2018-03-02T17:19:30.424Z,89.18
2018-03-02T17:21:57.807Z,80.25
2018-03-02T17:24:25.195Z,82.18
2018-03-02T17:26:52.567Z,89.90
2018-03-02T17:29:19.916Z,80.55
2018-03-02T17:31:47.290Z,84.37
2018-03-02T17:34:14.656Z,96.32
2018-03-02T17:36:42.031Z,81.60
2018-03-02T17:39:09.410Z,81.70
2018-03-02T17:41:36.824Z,83.60
2018-03-02T17:44:04.174Z,78.77
2018-03-02T17:46:31.522Z,84.28
2018-03-02T17:48:58.992Z,86.80
2018-03-02T17:51:26.578Z,78.27
2018-03-02T17:53:53.979Z,89.27
2018-03-02T17:56:21.334Z,85.40
2018-03-02T17:58:48.709Z,78.50
2018-03-02T18:01:16.079Z,77.60
2018-03-02T18:03:43.455Z,81.73
2018-03-02T18:06:10.826Z,88.20
2018-03-02T18:08:38.229Z,82.70
2018-03-02T18:11:05.971Z,91.77
2018-03-02T18:13:33.319Z,84.37
2018-03-02T18:16:00.691Z,78.00
2018-03-02T18:18:28.068Z,90.03
2018-03-02T18:20:55.436Z,85.27
2018-03-02T18:23:22.784Z,87.17
2018-03-02T18:25:50.164Z,85.47
2018-03-02T18:28:17.533Z,84.27
2018-03-02T18:30:44.924Z,88.07
2018-03-02T18:33:12.269Z,129.90
2018-03-02T18:35:39.650Z,98.70
2018-03-02T18:38:06.988Z,94.53
2018-03-02T18:40:34.365Z,88.10
2018-03-02T18:43:01.737Z,94.27
2018-03-02T18:45:29.082Z,89.97
2018-03-02T18:47:56.452Z,92.77
2018-03-02T18:50:23.793Z,86.03
2018-03-02T18:52:51.185Z,94.13
2018-03-02T18:55:18.550Z,95.20
2018-03-02T18:57:45.920Z,97.90
2018-03-02T19:00:13.281Z,103.43
2018-03-02T19:02:40.664Z,100.43
2018-03-02T19:05:08.061Z,103.53
2018-03-02T19:07:35.427Z,105.20
2018-03-02T19:10:02.839Z,102.90
2018-03-02T19:12:30.224Z,100.43
2018-03-02T19:14:57.606Z,96.23
2018-03-02T19:17:24.953Z,99.07
2018-03-02T19:19:52.318Z,100.50
2018-03-02T19:22:19.659Z,95.53
2018-03-02T19:24:47.031Z,95.83
2018-03-02T19:27:14.375Z,104.20
2018-03-02T19:29:41.755Z,102.30
2018-03-02T19:32:09.123Z,98.93
2018-03-02T19:34:36.536Z,102.70
2018-03-02T19:37:03.920Z,92.77
2018-03-02T19:39:31.322Z,98.03
2018-03-02T19:41:58.694Z,97.47
2018-03-02T19:44:26.126Z,104.13
2018-03-02T19:46:53.495Z,105.73
2018-03-02T19:49:20.838Z,103.87
2018-03-02T19:51:49.116Z,100.07
2018-03-02T19:54:16.475Z,103.30
2018-03-02T19:56:43.877Z,96.13
2018-03-02T19:59:11.226Z,99.90
2018-03-02T20:01:38.600Z,102.63
2018-03-02T20:04:06.095Z,98.63
2018-03-02T20:06:33.464Z,99.60
2018-03-02T20:09:00.818Z,99.47
2018-03-02T20:11:28.198Z,97.23
2018-03-02T20:13:55.548Z,104.63
2018-03-02T20:16:22.919Z,107.27
2018-03-02T20:18:50.294Z,101.70
2018-03-02T20:21:17.663Z,109.43
2018-03-02T20:23:45.091Z,107.73
2018-03-02T20:26:12.628Z,103.07
2018-03-02T20:28:40.032Z,103.60
2018-03-02T20:31:07.383Z,107.83
2018-03-02T20:33:34.758Z,98.73
2018-03-02T20:36:02.112Z,100.63
2018-03-02T20:38:29.554Z,98.70
2018-03-02T20:40:56.904Z,109.20
2018-03-02T20:43:24.262Z,107.87
2018-03-02T20:45:51.635Z,108.57
2018-03-02T20:48:18.987Z,107.83
2018-03-02T20:50:46.375Z,114.17
2018-03-02T20:53:13.756Z,108.10
2018-03-02T20:55:41.150Z,111.17
2018-03-02T20:58:08.524Z,108.37
2018-03-02T21:00:35.955Z,102.53
2018-03-02T21:03:03.350Z,114.00
2018-03-02T21:05:30.711Z,103.30
2018-03-02T21:07:58.087Z,101.10
2018-03-02T21:10:25.476Z,101.50
2018-03-02T21:12:52.851Z,105.33
2018-03-02T21:15:20.210Z,106.33
2018-03-02T21:17:47.583Z,105.60
2018-03-02T21:20:14.922Z,112.57
2018-03-02T21:22:42.391Z,109.20
2018-03-02T21:25:09.766Z,108.90
2018-03-02T21:27:37.112Z,111.00
2018-03-02T21:30:04.483Z,103.37
2018-03-02T21:32:31.884Z,103.57
2018-03-02T21:34:59.254Z,109.70
2018-03-02T21:37:26.602Z,110.60
2018-03-02T21:39:53.978Z,111.53
2018-03-02T21:42:21.318Z,103.90
2018-03-02T21:44:48.700Z,111.07
2018-03-02T21:47:16.044Z,109.23
2018-03-02T21:49:43.394Z,100.73
2018-03-02T21:52:10.773Z,119.47
2018-03-02T21:54:38.122Z,109.13
2018-03-02T21:57:05.495Z,111.40
2018-03-02T21:59:32.845Z,102.57
2018-03-02T22:02:00.212Z,103.90
2018-03-02T22:04:27.566Z,113.07
2018-03-02T22:06:54.958Z,102.70
2018-03-02T22:09:22.320Z,108.50
2018-03-02T22:11:49.668Z,107.70
2018-03-02T22:14:17.046Z,108.80
2018-03-02T22:16:44.386Z,108.97
2018-03-02T22:19:11.767Z,107.93
2018-03-02T22:21:39.145Z,103.17
2018-03-02T22:24:06.523Z,105.80
2018-03-02T22:26:33.870Z,108.63
2018-03-02T22:29:01.252Z,106.13
2018-03-02T22:31:28.598Z,108.47
2018-03-02T22:33:55.983Z,101.80
2018-03-02T22:36:23.332Z,103.90
2018-03-02T22:38:50.712Z,108.77
2018-03-02T22:41:18.058Z,104.50
2018-03-02T22:43:45.633Z,104.43
2018-03-02T22:46:12.991Z,112.30
2018-03-02T22:48:40.341Z,114.23
2018-03-02T22:51:07.706Z,96.30
2018-03-02T22:53:35.050Z,107.50
2018-03-02T22:56:02.429Z,111.40
2018-03-02T22:58:29.772Z,109.17
2018-03-02T23:00:57.156Z,102.50
2018-03-02T23:03:24.515Z,112.50
2018-03-02T23:05:51.862Z,107.63
2018-03-02T23:08:19.234Z,115.27
2018-03-02T23:10:46.582Z,110.80
2018-03-02T23:13:13.976Z,105.50
2018-03-02T23:15:41.327Z,101.47
2018-03-02T23:18:08.715Z,104.43
2018-03-02T23:20:36.063Z,110.73
2018-03-02T23:23:03.437Z,105.53
2018-03-02T23:25:30.788Z,113.13
2018-03-02T23:27:58.167Z,109.33
2018-03-02T23:30:25.520Z,110.93
2018-03-02T23:32:52.868Z,103.53
2018-03-02T23:35:20.245Z,105.80
2018-03-02T23:37:47.597Z,117.83
2018-03-02T23:40:14.970Z,111.93
2018-03-02T23:42:42.318Z,114.40
2018-03-02T23:45:09.693Z,114.03
2018-03-02T23:47:37.060Z,110.87
2018-03-02T23:50:04.433Z,110.37
2018-03-02T23:52:31.778Z,116.53
2018-03-02T23:54:59.181Z,114.67
2018-03-02T23:57:26.531Z,110.87
2018-03-02T23:59:53.875Z,114.07
